sensor_id;sensor_type;location;lat;lon;timestamp;P1;durP1;ratioP1;P2;durP2;ratioP2
27979;SDS011;15315;50.836;4.430;2023-04-24T00:05:04;26.10;;;12.00;;
27979;SDS011;15315;50.836;4.430;2023-04-24T00:15:06;27.35;;;11.88;;
27979;SDS011;15315;50.836;4.430;2023-04-24T00:25:07;30.90;;;13.68;;
27979;SDS011;15315;50.836;4.430;2023-04-24T00:35:07;28.05;;;13.10;;
27979;SDS011;15315;50.836;4.430;2023-04-24T00:45:08;22.50;;;12.70;;
27979;SDS011;15315;50.836;4.430;2023-04-24T00:55:09;24.77;;;12.73;;
27979;SDS011;15315;50.836;4.430;2023-04-24T01:05:09;28.10;;;11.55;;
27979;SDS011;15315;50.836;4.430;2023-04-24T01:15:11;20.92;;;12.35;;
27979;SDS011;15315;50.836;4.430;2023-04-24T01:25:12;26.98;;;12.95;;
27979;SDS011;15315;50.836;4.430;2023-04-24T01:35:12;26.30;;;12.52;;
27979;SDS011;15315;50.836;4.430;2023-04-24T01:45:13;27.70;;;11.15;;
27979;SDS011;15315;50.836;4.430;2023-04-24T01:55:14;17.15;;;10.93;;
27979;SDS011;15315;50.836;4.430;2023-04-24T02:05:14;23.83;;;12.57;;
27979;SDS011;15315;50.836;4.430;2023-04-24T02:15:15;24.58;;;12.63;;
27979;SDS011;15315;50.836;4.430;2023-04-24T02:25:15;27.05;;;14.38;;
27979;SDS011;15315;50.836;4.430;2023-04-24T02:35:15;22.90;;;14.90;;
27979;SDS011;15315;50.836;4.430;2023-04-24T02:45:16;27.05;;;13.73;;
27979;SDS011;15315;50.836;4.430;2023-04-24T02:55:17;22.70;;;14.43;;
27979;SDS011;15315;50.836;4.430;2023-04-24T03:05:17;25.95;;;13.25;;
27979;SDS011;15315;50.836;4.430;2023-04-24T03:15:18;16.98;;;9.93;;
27979;SDS011;15315;50.836;4.430;2023-04-24T03:25:18;16.75;;;9.40;;
27979;SDS011;15315;50.836;4.430;2023-04-24T03:35:18;15.43;;;9.55;;
27979;SDS011;15315;50.836;4.430;2023-04-24T03:45:19;19.25;;;10.80;;
27979;SDS011;15315;50.836;4.430;2023-04-24T03:55:20;22.20;;;11.73;;
27979;SDS011;15315;50.836;4.430;2023-04-24T04:05:20;16.10;;;9.32;;
27979;SDS011;15315;50.836;4.430;2023-04-24T04:15:20;13.75;;;8.20;;
27979;SDS011;15315;50.836;4.430;2023-04-24T04:25:21;15.75;;;7.80;;
27979;SDS011;15315;50.836;4.430;2023-04-24T04:35:21;18.23;;;7.35;;
27979;SDS011;15315;50.836;4.430;2023-04-24T04:45:21;15.73;;;6.88;;
27979;SDS011;15315;50.836;4.430;2023-04-24T04:55:24;16.13;;;8.60;;
27979;SDS011;15315;50.836;4.430;2023-04-24T05:05:25;25.02;;;10.70;;
27979;SDS011;15315;50.836;4.430;2023-04-24T05:15:25;27.23;;;12.80;;
27979;SDS011;15315;50.836;4.430;2023-04-24T05:25:26;25.95;;;12.48;;
27979;SDS011;15315;50.836;4.430;2023-04-24T05:35:26;23.38;;;12.23;;
27979;SDS011;15315;50.836;4.430;2023-04-24T05:45:26;21.48;;;11.55;;
27979;SDS011;15315;50.836;4.430;2023-04-24T05:55:27;27.02;;;13.10;;
27979;SDS011;15315;50.836;4.430;2023-04-24T06:05:27;27.48;;;14.60;;
27979;SDS011;15315;50.836;4.430;2023-04-24T06:15:29;32.10;;;14.30;;
27979;SDS011;15315;50.836;4.430;2023-04-24T06:35:33;29.85;;;15.00;;
27979;SDS011;15315;50.836;4.430;2023-04-24T06:45:33;34.33;;;17.02;;
27979;SDS011;15315;50.836;4.430;2023-04-24T06:55:35;36.35;;;16.50;;
27979;SDS011;15315;50.836;4.430;2023-04-24T07:05:36;33.35;;;17.52;;
27979;SDS011;15315;50.836;4.430;2023-04-24T07:15:38;34.13;;;15.88;;
27979;SDS011;15315;50.836;4.430;2023-04-24T07:25:39;28.05;;;13.27;;
27979;SDS011;15315;50.836;4.430;2023-04-24T07:35:40;20.00;;;11.13;;
27979;SDS011;15315;50.836;4.430;2023-04-24T07:45:41;18.08;;;10.10;;
27979;SDS011;15315;50.836;4.430;2023-04-24T07:55:41;22.65;;;11.18;;
27979;SDS011;15315;50.836;4.430;2023-04-24T08:05:42;37.03;;;12.75;;
27979;SDS011;15315;50.836;4.430;2023-04-24T08:15:42;22.90;;;10.93;;
27979;SDS011;15315;50.836;4.430;2023-04-24T08:25:43;24.55;;;8.63;;
27979;SDS011;15315;50.836;4.430;2023-04-24T08:35:43;24.40;;;8.40;;
27979;SDS011;15315;50.836;4.430;2023-04-24T08:45:43;21.23;;;6.75;;
27979;SDS011;15315;50.836;4.430;2023-04-24T08:55:45;21.15;;;6.75;;
27979;SDS011;15315;50.836;4.430;2023-04-24T09:05:48;14.73;;;5.45;;
27979;SDS011;15315;50.836;4.430;2023-04-24T09:15:50;12.75;;;4.60;;
27979;SDS011;15315;50.836;4.430;2023-04-24T09:25:53;13.30;;;3.97;;
27979;SDS011;15315;50.836;4.430;2023-04-24T09:35:55;12.33;;;4.80;;
27979;SDS011;15315;50.836;4.430;2023-04-24T09:45:56;16.83;;;4.28;;
27979;SDS011;15315;50.836;4.430;2023-04-24T09:56:10;22.25;;;7.20;;
27979;SDS011;15315;50.836;4.430;2023-04-24T10:06:15;13.75;;;4.40;;
27979;SDS011;15315;50.836;4.430;2023-04-24T10:16:15;11.63;;;4.27;;
27979;SDS011;15315;50.836;4.430;2023-04-24T10:26:16;12.65;;;4.10;;
27979;SDS011;15315;50.836;4.430;2023-04-24T10:36:17;13.85;;;4.63;;
27979;SDS011;15315;50.836;4.430;2023-04-24T10:46:20;11.90;;;4.63;;
27979;SDS011;15315;50.836;4.430;2023-04-24T10:56:21;11.00;;;4.80;;
27979;SDS011;15315;50.836;4.430;2023-04-24T11:06:28;9.33;;;4.10;;
27979;SDS011;15315;50.836;4.430;2023-04-24T11:16:30;12.35;;;4.70;;
27979;SDS011;15315;50.836;4.430;2023-04-24T11:26:55;12.38;;;4.82;;
27979;SDS011;15315;50.836;4.430;2023-04-24T11:37:05;12.57;;;5.03;;
27979;SDS011;15315;50.836;4.430;2023-04-24T11:47:06;16.03;;;4.90;;
27979;SDS011;15315;50.836;4.430;2023-04-24T11:57:09;12.38;;;5.18;;
27979;SDS011;15315;50.836;4.430;2023-04-24T12:07:09;12.25;;;4.88;;
27979;SDS011;15315;50.836;4.430;2023-04-24T12:17:10;11.80;;;4.90;;
27979;SDS011;15315;50.836;4.430;2023-04-24T12:27:18;13.48;;;5.90;;
27979;SDS011;15315;50.836;4.430;2023-04-24T12:37:20;8.40;;;4.57;;
27979;SDS011;15315;50.836;4.430;2023-04-24T12:47:20;7.15;;;3.90;;
27979;SDS011;15315;50.836;4.430;2023-04-24T12:57:23;7.18;;;3.58;;
27979;SDS011;15315;50.836;4.430;2023-04-24T13:07:24;8.10;;;3.63;;
27979;SDS011;15315;50.836;4.430;2023-04-24T13:17:25;9.73;;;4.18;;
27979;SDS011;15315;50.836;4.430;2023-04-24T13:27:25;6.05;;;3.50;;
27979;SDS011;15315;50.836;4.430;2023-04-24T13:37:25;6.00;;;2.72;;
27979;SDS011;15315;50.836;4.430;2023-04-24T13:47:26;8.40;;;2.88;;
27979;SDS011;15315;50.836;4.430;2023-04-24T13:57:26;6.28;;;2.47;;
27979;SDS011;15315;50.836;4.430;2023-04-24T14:07:28;6.75;;;2.60;;
27979;SDS011;15315;50.836;4.430;2023-04-24T14:17:29;6.73;;;2.57;;
27979;SDS011;15315;50.836;4.430;2023-04-24T14:27:31;8.23;;;2.25;;
27979;SDS011;15315;50.836;4.430;2023-04-24T14:37:32;4.68;;;2.15;;
27979;SDS011;15315;50.836;4.430;2023-04-24T14:47:32;10.48;;;2.60;;
27979;SDS011;15315;50.836;4.430;2023-04-24T14:57:33;7.07;;;2.20;;
27979;SDS011;15315;50.836;4.430;2023-04-24T15:07:33;8.75;;;2.28;;
27979;SDS011;15315;50.836;4.430;2023-04-24T15:17:35;4.97;;;2.33;;
27979;SDS011;15315;50.836;4.430;2023-04-24T15:27:39;7.20;;;2.15;;
27979;SDS011;15315;50.836;4.430;2023-04-24T15:37:41;5.72;;;1.33;;
27979;SDS011;15315;50.836;4.430;2023-04-24T15:47:43;5.30;;;2.00;;
27979;SDS011;15315;50.836;4.430;2023-04-24T15:57:46;5.13;;;2.03;;
27979;SDS011;15315;50.836;4.430;2023-04-24T16:07:47;5.23;;;1.97;;
27979;SDS011;15315;50.836;4.430;2023-04-24T16:17:48;8.35;;;2.42;;
27979;SDS011;15315;50.836;4.430;2023-04-24T16:27:49;9.98;;;1.92;;
27979;SDS011;15315;50.836;4.430;2023-04-24T16:37:51;11.90;;;2.10;;
27979;SDS011;15315;50.836;4.430;2023-04-24T16:47:52;6.40;;;2.50;;
27979;SDS011;15315;50.836;4.430;2023-04-24T16:57:52;4.07;;;1.88;;
27979;SDS011;15315;50.836;4.430;2023-04-24T17:07:52;5.75;;;2.50;;
27979;SDS011;15315;50.836;4.430;2023-04-24T17:17:53;7.72;;;2.25;;
27979;SDS011;15315;50.836;4.430;2023-04-24T17:27:53;4.63;;;2.03;;
27979;SDS011;15315;50.836;4.430;2023-04-24T17:37:54;9.82;;;3.70;;
27979;SDS011;15315;50.836;4.430;2023-04-24T17:47:55;8.02;;;3.67;;
27979;SDS011;15315;50.836;4.430;2023-04-24T17:57:56;6.57;;;3.70;;
27979;SDS011;15315;50.836;4.430;2023-04-24T18:07:56;6.82;;;2.50;;
27979;SDS011;15315;50.836;4.430;2023-04-24T18:17:57;6.90;;;2.45;;
27979;SDS011;15315;50.836;4.430;2023-04-24T18:27:58;6.25;;;2.53;;
27979;SDS011;15315;50.836;4.430;2023-04-24T18:37:58;5.55;;;2.20;;
27979;SDS011;15315;50.836;4.430;2023-04-24T18:47:58;8.43;;;3.30;;
27979;SDS011;15315;50.836;4.430;2023-04-24T18:57:59;7.18;;;3.40;;
27979;SDS011;15315;50.836;4.430;2023-04-24T19:07:59;8.50;;;3.47;;
27979;SDS011;15315;50.836;4.430;2023-04-24T19:18:00;10.32;;;3.60;;
27979;SDS011;15315;50.836;4.430;2023-04-24T19:28:00;9.77;;;3.88;;
27979;SDS011;15315;50.836;4.430;2023-04-24T19:38:01;11.50;;;4.23;;
27979;SDS011;15315;50.836;4.430;2023-04-24T19:48:01;11.85;;;3.67;;
27979;SDS011;15315;50.836;4.430;2023-04-24T19:58:02;10.23;;;3.97;;
27979;SDS011;15315;50.836;4.430;2023-04-24T20:08:03;15.95;;;4.90;;
27979;SDS011;15315;50.836;4.430;2023-04-24T20:18:03;14.02;;;4.45;;
27979;SDS011;15315;50.836;4.430;2023-04-24T20:28:04;13.35;;;4.07;;
27979;SDS011;15315;50.836;4.430;2023-04-24T20:38:04;11.63;;;4.82;;
27979;SDS011;15315;50.836;4.430;2023-04-24T20:48:05;12.02;;;3.95;;
27979;SDS011;15315;50.836;4.430;2023-04-24T20:58:07;14.77;;;4.97;;
27979;SDS011;15315;50.836;4.430;2023-04-24T21:08:07;11.27;;;4.72;;
27979;SDS011;15315;50.836;4.430;2023-04-24T21:18:08;15.52;;;4.88;;
27979;SDS011;15315;50.836;4.430;2023-04-24T21:28:08;17.92;;;5.22;;
27979;SDS011;15315;50.836;4.430;2023-04-24T21:38:09;16.23;;;5.07;;
27979;SDS011;15315;50.836;4.430;2023-04-24T21:48:09;13.70;;;4.38;;
27979;SDS011;15315;50.836;4.430;2023-04-24T21:58:10;12.85;;;5.05;;
27979;SDS011;15315;50.836;4.430;2023-04-24T22:08:11;19.58;;;4.57;;
27979;SDS011;15315;50.836;4.430;2023-04-24T22:18:12;12.82;;;4.15;;
27979;SDS011;15315;50.836;4.430;2023-04-24T22:28:13;12.10;;;3.90;;
27979;SDS011;15315;50.836;4.430;2023-04-24T22:38:13;18.63;;;4.22;;
27979;SDS011;15315;50.836;4.430;2023-04-24T22:48:14;24.77;;;4.65;;
27979;SDS011;15315;50.836;4.430;2023-04-24T22:58:15;14.63;;;4.18;;
27979;SDS011;15315;50.836;4.430;2023-04-24T23:08:15;31.83;;;5.85;;
27979;SDS011;15315;50.836;4.430;2023-04-24T23:18:16;14.38;;;4.00;;
27979;SDS011;15315;50.836;4.430;2023-04-24T23:28:16;22.65;;;4.55;;
27979;SDS011;15315;50.836;4.430;2023-04-24T23:38:17;25.25;;;4.95;;
27979;SDS011;15315;50.836;4.430;2023-04-24T23:48:17;28.42;;;5.53;;
27979;SDS011;15315;50.836;4.430;2023-04-24T23:58:17;20.30;;;4.03;;
